createdAt,value
2023-04-18T00:01:34.707Z,102358.47
2023-04-18T00:04:06.753Z,102362.00
2023-04-18T00:06:39.065Z,102365.41
2023-04-18T00:09:11.041Z,102361.78
2023-04-18T00:11:43.082Z,102363.38
2023-04-18T00:14:15.214Z,102332.63
2023-04-18T00:16:47.658Z,102362.34
2023-04-18T00:19:20.186Z,102363.88
2023-04-18T00:21:53.148Z,102356.50
2023-04-18T00:24:25.210Z,102353.66
2023-04-18T00:26:57.199Z,102350.50
2023-04-18T00:29:31.749Z,102350.34
2023-04-18T00:32:03.704Z,102356.69
2023-04-18T00:34:35.792Z,102350.50
2023-04-18T00:37:08.182Z,102347.22
2023-04-18T00:39:40.130Z,102348.03
2023-04-18T00:42:12.128Z,102354.16
2023-04-18T00:44:44.052Z,102346.91
2023-04-18T00:47:17.601Z,102343.19
2023-04-18T00:49:50.032Z,102351.00
2023-04-18T00:52:22.208Z,102335.88
2023-04-18T00:54:55.517Z,102346.66
2023-04-18T00:57:27.712Z,102340.41
2023-04-18T01:00:10.289Z,102340.13
2023-04-18T01:02:42.390Z,102342.78
2023-04-18T01:05:14.445Z,102347.06
2023-04-18T01:07:46.420Z,102332.41
2023-04-18T01:10:19.656Z,102338.84
2023-04-18T01:13:11.739Z,102345.25
2023-04-18T01:15:49.136Z,102344.25
2023-04-18T01:18:22.600Z,102343.91
2023-04-18T01:20:57.070Z,102307.00
2023-04-18T01:23:30.015Z,102344.56
2023-04-18T01:26:02.024Z,102343.47
2023-04-18T01:28:37.379Z,102338.78
2023-04-18T01:31:09.338Z,102333.22
2023-04-18T01:33:41.768Z,102333.00
2023-04-18T01:36:13.936Z,102329.19
2023-04-18T01:38:45.943Z,102327.38
2023-04-18T01:41:17.962Z,102322.84
2023-04-18T01:43:49.996Z,102323.59
2023-04-18T01:46:21.922Z,102307.63
2023-04-18T01:48:54.131Z,102325.47
2023-04-18T01:51:28.254Z,102319.22
2023-04-18T01:54:00.311Z,102311.22
2023-04-18T01:56:32.203Z,102323.25
2023-04-18T01:59:04.227Z,102314.16
2023-04-18T02:01:36.160Z,102324.34
2023-04-18T02:04:08.206Z,102315.44
2023-04-18T02:06:40.230Z,102322.19
2023-04-18T02:09:12.400Z,102320.94
2023-04-18T02:11:44.429Z,102319.84
2023-04-18T02:14:16.412Z,102319.69
2023-04-18T02:16:48.452Z,102321.22
2023-04-18T02:19:20.422Z,102308.81
2023-04-18T02:21:52.444Z,102317.53
2023-04-18T02:24:24.394Z,102312.78
2023-04-18T02:26:56.339Z,102311.75
2023-04-18T02:29:30.525Z,102315.91
2023-04-18T02:32:03.310Z,102314.00
2023-04-18T02:34:36.913Z,102311.38
2023-04-18T02:37:08.850Z,102265.41
2023-04-18T02:39:40.935Z,102311.38
2023-04-18T02:42:12.909Z,102315.34
2023-04-18T02:44:44.830Z,102310.66
2023-04-18T02:47:16.739Z,102320.16
2023-04-18T02:49:48.775Z,102311.13
2023-04-18T02:52:20.724Z,102308.75
2023-04-18T02:54:52.824Z,102309.22
2023-04-18T02:57:24.805Z,102311.56
2023-04-18T02:59:56.781Z,102319.28
2023-04-18T03:02:28.767Z,102316.66
2023-04-18T03:05:00.799Z,102312.00
2023-04-18T03:07:32.716Z,102305.78
2023-04-18T03:10:05.521Z,102305.78
2023-04-18T03:12:37.465Z,102305.56
2023-04-18T03:15:10.063Z,102293.34
2023-04-18T03:17:42.474Z,102304.84
2023-04-18T03:20:14.535Z,102309.75
2023-04-18T03:22:46.450Z,102314.59
2023-04-18T03:25:18.360Z,102312.59
2023-04-18T03:27:50.526Z,102307.16
2023-04-18T03:30:22.787Z,102313.03
2023-04-18T03:32:56.169Z,102297.53
2023-04-18T03:35:28.594Z,102313.81
2023-04-18T03:38:00.606Z,102312.22
2023-04-18T03:40:32.613Z,102310.22
2023-04-18T03:43:04.557Z,102311.13
2023-04-18T03:45:36.877Z,102316.28
2023-04-18T03:48:08.826Z,102304.56
2023-04-18T03:50:40.967Z,102313.09
2023-04-18T03:53:12.962Z,102318.34
2023-04-18T03:55:44.945Z,102312.06
2023-04-18T03:58:18.049Z,102312.91
2023-04-18T04:00:53.232Z,102312.69
2023-04-18T04:03:25.273Z,102313.75
2023-04-18T04:05:57.629Z,102281.66
2023-04-18T04:08:29.602Z,102319.50
2023-04-18T04:11:01.563Z,102301.31
2023-04-18T04:13:33.496Z,102311.44
2023-04-18T04:16:06.372Z,102314.88
2023-04-18T04:18:38.348Z,102318.59
2023-04-18T04:21:10.290Z,102322.75
2023-04-18T04:23:42.745Z,102312.06
2023-04-18T04:26:17.482Z,102323.09
2023-04-18T04:28:53.594Z,102282.97
2023-04-18T04:31:25.578Z,102326.84
2023-04-18T04:33:57.722Z,102325.09
2023-04-18T04:36:29.770Z,102282.19
2023-04-18T04:39:04.229Z,102321.88
2023-04-18T04:41:37.645Z,102317.28
2023-04-18T04:44:09.778Z,102328.56
2023-04-18T04:46:42.181Z,102325.03
2023-04-18T04:49:14.363Z,102328.56
2023-04-18T04:51:46.342Z,102332.59
2023-04-18T04:54:18.396Z,102331.41
2023-04-18T04:56:51.203Z,102310.94
2023-04-18T04:59:23.101Z,102325.66
2023-04-18T05:01:55.075Z,102333.84
2023-04-18T05:04:27.123Z,102329.59
2023-04-18T05:06:59.362Z,102334.94
2023-04-18T05:09:31.324Z,102335.84
2023-04-18T05:12:03.703Z,102331.50
2023-04-18T05:14:35.674Z,102328.78
2023-04-18T05:17:07.897Z,102331.41
2023-04-18T05:19:40.989Z,102338.56
2023-04-18T05:22:12.902Z,102342.81
2023-04-18T05:24:44.931Z,102342.69
2023-04-18T05:27:18.171Z,102348.84
2023-04-18T05:29:50.936Z,102353.38
2023-04-18T05:32:22.984Z,102354.81
2023-04-18T05:34:54.973Z,102352.28
2023-04-18T05:37:27.017Z,102357.63
2023-04-18T05:40:00.744Z,102357.44
2023-04-18T05:42:33.431Z,102363.50
2023-04-18T05:45:06.106Z,102360.06
2023-04-18T05:47:38.137Z,102363.50
2023-04-18T05:50:10.897Z,102365.59
2023-04-18T05:52:42.887Z,102365.00
2023-04-18T05:55:14.859Z,102371.34
2023-04-18T05:57:46.839Z,102370.53
2023-04-18T06:00:19.876Z,102381.13
2023-04-18T06:02:52.024Z,102333.44
2023-04-18T06:05:24.516Z,102374.28
2023-04-18T06:07:56.804Z,102371.53
2023-04-18T06:10:29.704Z,102377.81
2023-04-18T06:13:02.072Z,102376.59
2023-04-18T06:15:35.376Z,102370.22
2023-04-18T06:18:07.591Z,102381.63
2023-04-18T06:20:39.800Z,102382.56
2023-04-18T06:23:11.823Z,102382.66
2023-04-18T06:25:43.936Z,102363.69
2023-04-18T06:28:16.219Z,102384.97
2023-04-18T06:30:48.154Z,102385.16
2023-04-18T06:33:20.060Z,102387.69
2023-04-18T06:35:52.584Z,102381.41
2023-04-18T06:38:24.501Z,102391.91
2023-04-18T06:40:56.478Z,102391.13
2023-04-18T06:43:31.262Z,102388.38
2023-04-18T06:46:05.457Z,102353.19
2023-04-18T06:48:37.528Z,102396.94
2023-04-18T06:51:09.412Z,102399.16
2023-04-18T06:53:41.626Z,102399.34
2023-04-18T06:56:13.671Z,102392.31
2023-04-18T06:58:45.790Z,102399.84
2023-04-18T07:01:17.785Z,102404.56
2023-04-18T07:03:49.826Z,102405.47
2023-04-18T07:06:21.760Z,102408.28
2023-04-18T07:08:56.046Z,102409.00
2023-04-18T07:11:28.703Z,102397.22
2023-04-18T07:14:00.760Z,102411.81
2023-04-18T07:16:32.833Z,102414.25
2023-04-18T07:19:06.656Z,102408.59
2023-04-18T07:21:40.656Z,102414.22
2023-04-18T07:24:13.054Z,102413.81
2023-04-18T07:26:45.335Z,102413.06
2023-04-18T07:29:19.353Z,102419.66
2023-04-18T07:31:52.072Z,102415.19
2023-04-18T07:34:24.350Z,102429.91
2023-04-18T07:36:57.700Z,102420.00
2023-04-18T07:39:31.823Z,102423.16
2023-04-18T07:42:05.203Z,102422.63
2023-04-18T07:44:37.155Z,102425.63
2023-04-18T07:47:12.375Z,102423.59
2023-04-18T07:49:44.375Z,102422.31
2023-04-18T07:52:16.470Z,102417.41
2023-04-18T07:54:48.397Z,102427.06
2023-04-18T07:57:20.539Z,102432.50
2023-04-18T07:59:53.916Z,102421.78
2023-04-18T08:02:26.014Z,102395.88
2023-04-18T08:04:58.560Z,102427.53
2023-04-18T08:07:31.029Z,102436.41
2023-04-18T08:10:03.433Z,102431.06
2023-04-18T08:12:36.632Z,102441.94
2023-04-18T08:15:09.459Z,102440.59
2023-04-18T08:17:43.997Z,102413.38
2023-04-18T08:20:16.050Z,102442.19
2023-04-18T08:23:05.221Z,102440.38
2023-04-18T08:25:39.808Z,102433.94
2023-04-18T08:28:12.017Z,102443.00
2023-04-18T08:30:44.119Z,102428.59
2023-04-18T08:33:16.355Z,102435.22
2023-04-18T08:35:51.928Z,102433.25
2023-04-18T08:38:23.838Z,102434.63
2023-04-18T08:40:55.939Z,102432.06
2023-04-18T08:43:30.166Z,102432.34
2023-04-18T08:46:02.589Z,102428.88
2023-04-18T08:48:34.531Z,102418.09
2023-04-18T08:51:06.511Z,102429.25
2023-04-18T08:53:39.634Z,102429.31
2023-04-18T08:56:14.719Z,102423.84
2023-04-18T08:58:46.688Z,102420.75
2023-04-18T09:01:18.675Z,102408.34
2023-04-18T09:03:51.210Z,102412.25
2023-04-18T09:06:23.160Z,102389.25
2023-04-18T09:08:58.936Z,102406.28
2023-04-18T09:11:32.525Z,102402.69
2023-04-18T09:14:04.426Z,102405.47
2023-04-18T09:16:50.531Z,102380.25
2023-04-18T09:19:23.834Z,102400.78
2023-04-18T09:22:02.016Z,102395.38
2023-04-18T09:24:34.463Z,102405.69
2023-04-18T09:27:15.305Z,102389.41
2023-04-18T09:29:50.090Z,102413.47
2023-04-18T09:32:29.467Z,102388.97
2023-04-18T09:35:05.581Z,102397.84
2023-04-18T09:37:37.601Z,102404.31
2023-04-18T09:40:20.694Z,102403.59
2023-04-18T09:42:57.078Z,102404.69
2023-04-18T09:45:29.056Z,102403.00
2023-04-18T09:48:01.237Z,102402.78
2023-04-18T09:50:35.226Z,102392.66
2023-04-18T09:53:09.058Z,102384.28
2023-04-18T09:55:42.429Z,102383.13
2023-04-18T09:58:14.870Z,102397.75
2023-04-18T10:00:47.581Z,102390.53
2023-04-18T10:03:22.392Z,102396.09
2023-04-18T10:05:57.672Z,102395.50
2023-04-18T10:08:30.531Z,102402.84
2023-04-18T10:11:02.486Z,102376.41
2023-04-18T10:13:39.014Z,102373.56
2023-04-18T10:16:11.522Z,102390.63
2023-04-18T10:18:43.529Z,102400.56
2023-04-18T10:21:15.531Z,102401.47
2023-04-18T10:23:49.095Z,102402.22
2023-04-18T10:26:21.808Z,102397.59
2023-04-18T10:28:58.933Z,102390.69
2023-04-18T10:31:39.530Z,102400.50
2023-04-18T10:34:17.496Z,102398.72
2023-04-18T10:37:06.429Z,102342.75
2023-04-18T10:40:08.307Z,102411.28
2023-04-18T10:42:58.811Z,102400.72
2023-04-18T10:45:32.611Z,102412.84
2023-04-18T10:48:30.267Z,102391.63
2023-04-18T10:51:16.736Z,102394.34
2023-04-18T10:53:57.664Z,102394.75
2023-04-18T10:56:29.970Z,102399.19
2023-04-18T10:59:03.801Z,102407.19
2023-04-18T11:01:42.717Z,102396.63
2023-04-18T11:04:15.404Z,102381.91
2023-04-18T11:06:57.279Z,102399.94
2023-04-18T11:09:29.245Z,102402.50
2023-04-18T11:12:07.779Z,102399.19
2023-04-18T11:14:45.360Z,102392.13
2023-04-18T11:17:25.482Z,102389.53
2023-04-18T11:20:13.126Z,102384.56
2023-04-18T11:22:50.400Z,102380.00
2023-04-18T11:25:36.518Z,102400.44
2023-04-18T11:28:09.510Z,102392.47
2023-04-18T11:30:42.700Z,102393.59
2023-04-18T11:33:15.796Z,102387.34
2023-04-18T11:35:47.852Z,102388.31
2023-04-18T11:38:19.834Z,102386.69
2023-04-18T11:40:51.752Z,102363.13
2023-04-18T11:43:25.423Z,102401.81
2023-04-18T11:45:59.898Z,102391.19
2023-04-18T11:48:40.357Z,102400.25
2023-04-18T11:51:34.410Z,102393.38
2023-04-18T11:54:06.634Z,102378.84
2023-04-18T11:56:48.535Z,102385.19
2023-04-18T11:59:20.790Z,102377.41
2023-04-18T12:02:15.302Z,102363.78
2023-04-18T12:04:59.300Z,102390.75
2023-04-18T12:07:40.262Z,102379.06
2023-04-18T12:10:29.552Z,102382.06
2023-04-18T12:13:02.526Z,102383.53
2023-04-18T12:15:39.329Z,102387.22
2023-04-18T12:18:14.215Z,102391.81
2023-04-18T12:20:52.613Z,102385.91
2023-04-18T12:23:37.099Z,102389.47
2023-04-18T12:26:16.622Z,102381.78
2023-04-18T12:28:51.507Z,102382.34
2023-04-18T12:31:23.594Z,102377.81
2023-04-18T12:33:55.743Z,102375.75
2023-04-18T12:36:28.751Z,102377.97
2023-04-18T12:39:01.831Z,102385.16
2023-04-18T12:41:34.052Z,102374.50
2023-04-18T12:44:06.846Z,102356.59
2023-04-18T12:46:38.877Z,102376.50
2023-04-18T12:49:10.913Z,102368.09
2023-04-18T12:51:43.649Z,102371.22
2023-04-18T12:54:15.799Z,102369.75
2023-04-18T12:56:47.866Z,102369.19
2023-04-18T12:59:19.811Z,102316.53
2023-04-18T13:01:51.843Z,102374.09
2023-04-18T13:04:23.999Z,102373.72
2023-04-18T13:06:56.401Z,102377.97
2023-04-18T13:09:28.500Z,102372.44
2023-04-18T13:12:00.445Z,102372.28
2023-04-18T13:14:32.501Z,102370.97
2023-04-18T13:17:04.569Z,102373.38
2023-04-18T13:19:36.537Z,102374.78
2023-04-18T13:22:08.479Z,102382.09
2023-04-18T13:24:40.495Z,102376.19
2023-04-18T13:27:14.635Z,102376.75
2023-04-18T13:29:46.784Z,102334.38
2023-04-18T13:32:18.760Z,102362.91
2023-04-18T13:34:51.105Z,102368.53
2023-04-18T13:37:23.995Z,102373.53
2023-04-18T13:39:56.138Z,102371.03
2023-04-18T13:42:28.235Z,102375.47
2023-04-18T13:45:00.308Z,102369.13
2023-04-18T13:47:32.469Z,102359.63
2023-04-18T13:50:05.560Z,102362.50
2023-04-18T13:52:37.475Z,102348.34
2023-04-18T13:55:10.706Z,102358.72
2023-04-18T13:57:42.631Z,102353.16
2023-04-18T14:00:15.446Z,102352.47
2023-04-18T14:02:47.510Z,102331.22
2023-04-18T14:05:19.744Z,102352.47
2023-04-18T14:07:51.721Z,102358.81
2023-04-18T14:10:23.874Z,102364.00
2023-04-18T14:12:55.881Z,102357.28
2023-04-18T14:15:27.881Z,102340.94
2023-04-18T14:18:01.042Z,102356.00
2023-04-18T14:20:34.765Z,102350.47
2023-04-18T14:23:06.694Z,102351.06
2023-04-18T14:25:38.609Z,102336.72
2023-04-18T14:28:12.324Z,102338.41
2023-04-18T14:30:44.808Z,102339.81
2023-04-18T14:33:17.765Z,102348.56
2023-04-18T14:35:49.953Z,102341.50
2023-04-18T14:38:21.890Z,102336.06
2023-04-18T14:40:55.660Z,102345.88
2023-04-18T14:43:28.016Z,102344.97
2023-04-18T14:46:00.071Z,102346.91
2023-04-18T14:48:32.097Z,102331.09
2023-04-18T14:51:04.409Z,102328.72
2023-04-18T14:53:36.562Z,102335.19
2023-04-18T14:56:08.507Z,102331.31
2023-04-18T14:58:40.455Z,102343.56
2023-04-18T15:01:12.553Z,102341.75
2023-04-18T15:03:44.969Z,102339.31
2023-04-18T15:06:17.112Z,102333.13
2023-04-18T15:08:49.133Z,102318.19
2023-04-18T15:11:21.104Z,102335.91
2023-04-18T15:13:53.354Z,102334.03
2023-04-18T15:16:25.646Z,102318.16
2023-04-18T15:18:57.707Z,102326.66
2023-04-18T15:21:29.791Z,102326.59
2023-04-18T15:24:01.703Z,102326.34
2023-04-18T15:26:33.648Z,102265.44
2023-04-18T15:29:05.658Z,102309.19
2023-04-18T15:31:39.179Z,102316.06
2023-04-18T15:34:12.196Z,102317.50
2023-04-18T15:36:44.313Z,102304.72
2023-04-18T15:39:20.170Z,102324.28
2023-04-18T15:41:56.622Z,102291.50
2023-04-18T15:44:30.553Z,102296.97
2023-04-18T15:47:02.499Z,102306.91
2023-04-18T15:49:34.512Z,102311.22
2023-04-18T15:52:06.889Z,102310.16
2023-04-18T15:54:42.194Z,102311.97
2023-04-18T15:57:14.311Z,102307.16
2023-04-18T15:59:46.241Z,102320.59
2023-04-18T16:02:18.367Z,102304.72
2023-04-18T16:04:50.372Z,102299.56
2023-04-18T16:07:22.367Z,102305.00
2023-04-18T16:09:54.318Z,102300.78
2023-04-18T16:12:26.259Z,102311.25
2023-04-18T16:14:58.224Z,102310.31
2023-04-18T16:17:30.489Z,102302.09
2023-04-18T16:20:02.712Z,102306.56
2023-04-18T16:22:34.840Z,102305.47
2023-04-18T16:25:07.788Z,102310.91
2023-04-18T16:27:39.859Z,102302.88
2023-04-18T16:30:12.340Z,102308.19
2023-04-18T16:32:44.718Z,102305.31
2023-04-18T16:35:16.718Z,102293.00
2023-04-18T16:37:48.706Z,102301.84
2023-04-18T16:40:20.682Z,102296.56
2023-04-18T16:42:52.859Z,102302.94
2023-04-18T16:45:24.806Z,102293.19
2023-04-18T16:47:57.545Z,102297.06
2023-04-18T16:50:29.507Z,102293.44
2023-04-18T16:53:04.582Z,102283.44
2023-04-18T16:55:36.547Z,102287.78
2023-04-18T16:58:08.884Z,102295.53
2023-04-18T17:00:40.912Z,102292.16
2023-04-18T17:03:12.949Z,102294.88
2023-04-18T17:05:45.631Z,102299.56
2023-04-18T17:08:17.680Z,102288.19
2023-04-18T17:10:52.727Z,102298.97
2023-04-18T17:13:26.948Z,102300.56
2023-04-18T17:15:59.150Z,102286.06
2023-04-18T17:18:32.399Z,102279.31
2023-04-18T17:21:04.324Z,102295.47
2023-04-18T17:23:36.382Z,102290.00
2023-04-18T17:26:09.954Z,102280.63
2023-04-18T17:28:41.968Z,102294.56
2023-04-18T17:31:15.665Z,102279.97
2023-04-18T17:33:47.836Z,102285.19
2023-04-18T17:36:19.913Z,102294.16
2023-04-18T17:38:51.946Z,102297.56
2023-04-18T17:41:23.914Z,102293.75
2023-04-18T17:43:58.048Z,102292.56
2023-04-18T17:46:31.070Z,102298.75
2023-04-18T17:49:04.278Z,102299.41
2023-04-18T17:51:36.233Z,102265.09
2023-04-18T17:54:08.198Z,102273.72
2023-04-18T17:56:40.356Z,102304.00
2023-04-18T17:59:12.590Z,102306.44
2023-04-18T18:01:44.777Z,102307.22
2023-04-18T18:04:16.943Z,102314.81
2023-04-18T18:06:56.780Z,102298.66
2023-04-18T18:09:28.720Z,102321.81
2023-04-18T18:12:00.694Z,102314.44
2023-04-18T18:14:32.668Z,102315.88
2023-04-18T18:17:05.684Z,102319.22
2023-04-18T18:19:37.828Z,102303.78
2023-04-18T18:22:09.799Z,102333.22
2023-04-18T18:24:41.741Z,102326.88
2023-04-18T18:27:13.776Z,102323.06
2023-04-18T18:29:47.908Z,102285.84
2023-04-18T18:32:20.496Z,102318.66
2023-04-18T18:34:52.672Z,102302.13
2023-04-18T18:37:26.060Z,102317.44
2023-04-18T18:39:58.691Z,102312.41
2023-04-18T18:42:30.736Z,102322.34
2023-04-18T18:45:03.932Z,102325.63
2023-04-18T18:47:39.002Z,102334.38
2023-04-18T18:50:11.881Z,102323.41
2023-04-18T18:52:43.941Z,102335.66
2023-04-18T18:55:16.451Z,102342.28
2023-04-18T18:57:48.437Z,102342.91
2023-04-18T19:00:20.567Z,102339.06
2023-04-18T19:02:52.943Z,102348.50
2023-04-18T19:05:25.218Z,102349.16
2023-04-18T19:07:57.418Z,102307.56
2023-04-18T19:10:29.433Z,102341.91
2023-04-18T19:13:01.491Z,102348.75
2023-04-18T19:15:33.439Z,102355.91
2023-04-18T19:18:05.800Z,102354.06
2023-04-18T19:20:40.374Z,102343.91
2023-04-18T19:23:12.353Z,102359.75
2023-04-18T19:25:45.024Z,102355.00
2023-04-18T19:28:18.437Z,102361.94
2023-04-18T19:30:51.109Z,102360.13
2023-04-18T19:33:27.566Z,102360.22
2023-04-18T19:35:59.605Z,102355.63
2023-04-18T19:38:32.504Z,102352.59
2023-04-18T19:41:04.474Z,102345.34
2023-04-18T19:43:38.416Z,102352.72
2023-04-18T19:46:10.447Z,102367.13
2023-04-18T19:48:42.717Z,102377.69
2023-04-18T19:51:14.715Z,102360.50
2023-04-18T19:53:46.758Z,102373.69
2023-04-18T19:56:18.686Z,102379.06
2023-04-18T19:58:51.090Z,102377.00
2023-04-18T20:01:24.187Z,102381.41
2023-04-18T20:03:58.651Z,102381.22
2023-04-18T20:06:31.251Z,102381.22
2023-04-18T20:09:04.175Z,102367.66
2023-04-18T20:11:36.226Z,102382.88
2023-04-18T20:14:08.187Z,102386.50
2023-04-18T20:16:42.690Z,102387.19
2023-04-18T20:19:15.792Z,102380.47
2023-04-18T20:21:48.044Z,102389.50
2023-04-18T20:24:21.163Z,102398.41
2023-04-18T20:26:53.059Z,102391.31
2023-04-18T20:29:25.423Z,102381.41
2023-04-18T20:31:57.354Z,102390.56
2023-04-18T20:34:31.343Z,102401.13
2023-04-18T20:37:03.549Z,102400.16
2023-04-18T20:39:38.038Z,102399.19
2023-04-18T20:42:14.365Z,102359.38
2023-04-18T20:44:47.021Z,102392.78
2023-04-18T20:47:19.077Z,102396.84
2023-04-18T20:49:51.033Z,102399.25
2023-04-18T20:52:23.072Z,102383.59
2023-04-18T20:54:54.966Z,102400.56
2023-04-18T20:57:26.985Z,102409.47
2023-04-18T20:59:59.663Z,102392.66
2023-04-18T21:02:31.963Z,102400.41
2023-04-18T21:05:04.270Z,102403.13
2023-04-18T21:07:36.895Z,102412.78
2023-04-18T21:10:09.347Z,102403.53
2023-04-18T21:12:42.597Z,102412.13
2023-04-18T21:15:14.588Z,102411.13
2023-04-18T21:17:46.544Z,102403.63
2023-04-18T21:20:19.031Z,102414.44
2023-04-18T21:22:51.011Z,102417.66
2023-04-18T21:25:22.972Z,102409.50
2023-04-18T21:27:54.910Z,102397.44
2023-04-18T21:30:26.799Z,102416.59
2023-04-18T21:32:58.857Z,102420.03
2023-04-18T21:35:30.849Z,102406.28
2023-04-18T21:38:02.788Z,102413.53
2023-04-18T21:40:34.711Z,102418.06
2023-04-18T21:43:06.662Z,102389.66
2023-04-18T21:45:38.713Z,102419.63
2023-04-18T21:48:10.791Z,102415.84
2023-04-18T21:50:43.157Z,102416.38
2023-04-18T21:53:15.108Z,102410.16
2023-04-18T21:55:47.200Z,102412.69
2023-04-18T21:58:19.130Z,102411.97
2023-04-18T22:00:51.229Z,102413.59
2023-04-18T22:03:24.941Z,102413.25
2023-04-18T22:05:57.807Z,102400.69
2023-04-18T22:08:31.099Z,102367.13
2023-04-18T22:11:04.903Z,102404.03
2023-04-18T22:13:37.206Z,102420.75
2023-04-18T22:16:09.430Z,102416.38
2023-04-18T22:18:41.402Z,102408.22
2023-04-18T22:21:13.307Z,102409.28
2023-04-18T22:23:45.421Z,102421.38
2023-04-18T22:26:17.352Z,102420.31
2023-04-18T22:28:49.428Z,102419.31
2023-04-18T22:31:21.494Z,102418.34
2023-04-18T22:33:53.547Z,102421.69
2023-04-18T22:36:27.013Z,102418.16
2023-04-18T22:38:58.955Z,102425.88
2023-04-18T22:41:30.929Z,102413.56
2023-04-18T22:44:03.472Z,102421.47
2023-04-18T22:46:38.484Z,102427.38
2023-04-18T22:49:10.876Z,102420.22
2023-04-18T22:51:44.025Z,102421.09
2023-04-18T22:54:16.252Z,102417.31
2023-04-18T22:56:51.453Z,102425.94
2023-04-18T22:59:23.361Z,102417.56
2023-04-18T23:01:55.619Z,102423.97
2023-04-18T23:04:30.216Z,102385.09
2023-04-18T23:07:02.503Z,102415.97
2023-04-18T23:09:34.492Z,102418.31
2023-04-18T23:12:06.600Z,102382.75
2023-04-18T23:14:38.947Z,102418.31
2023-04-18T23:17:10.890Z,102405.78
2023-04-18T23:19:45.095Z,102426.28
2023-04-18T23:22:17.071Z,102422.66
2023-04-18T23:24:48.964Z,102420.84
2023-04-18T23:27:21.005Z,102420.84
2023-04-18T23:29:52.939Z,102424.28
2023-04-18T23:32:24.914Z,102416.50
2023-04-18T23:34:56.930Z,102419.19
2023-04-18T23:37:28.782Z,102422.84
2023-04-18T23:40:01.042Z,102420.28
2023-04-18T23:42:35.783Z,102429.41
2023-04-18T23:45:08.236Z,102417.22
2023-04-18T23:47:40.312Z,102419.13
2023-04-18T23:50:12.636Z,102388.34
2023-04-18T23:52:44.554Z,102427.38
2023-04-18T23:55:17.453Z,102421.34
2023-04-18T23:57:49.401Z,102429.53
